Time;durP1;ratioP1;P1;durP2;ratioP2;P2;SDS_P1;SDS_P2;PMS_P1;PMS_P2;Temp;Humidity;BMP_temperature;BMP_pressure;BME280_temperature;BME280_humidity;BME280_pressure;Samples;Min_cycle;Max_cycle;Signal;HPM_P1;HPM_P2
2022/03/07 00:02:10;;;;;;;32.45;18.58;;;4.50;69.70;;;;;;4999697;28;20026;-74
2022/03/07 00:04:36;;;;;;;36.00;19.45;;;4.30;70.00;;;;;;5010363;28;20038;-74
2022/03/07 00:07:02;;;;;;;42.88;20.52;;;4.30;70.10;;;;;;5010371;28;20027;-74
2022/03/07 00:09:27;;;;;;;37.72;20.65;;;4.30;70.00;;;;;;4995419;28;20500;-74
2022/03/07 00:11:53;;;;;;;41.15;18.83;;;4.30;70.10;;;;;;4995217;28;20056;-74
2022/03/07 00:14:19;;;;;;;37.17;19.35;;;4.30;70.10;;;;;;4995329;28;20026;-74
2022/03/07 00:16:45;;;;;;;38.00;19.02;;;4.20;70.30;;;;;;4995409;28;20488;-75
2022/03/07 00:19:11;;;;;;;33.85;17.77;;;4.20;71.00;;;;;;4995203;28;20014;-74
2022/03/07 00:21:38;;;;;;;32.33;18.10;;;4.20;70.60;;;;;;4994954;28;20049;-74
2022/03/07 00:24:05;;;;;;;33.10;18.35;;;4.10;71.00;;;;;;5008281;28;20022;-74
2022/03/07 00:26:31;;;;;;;37.17;19.05;;;4.20;70.60;;;;;;5013608;28;20076;-74
2022/03/07 00:28:57;;;;;;;35.17;18.83;;;4.10;70.80;;;;;;4995494;28;20546;-74
2022/03/07 00:31:23;;;;;;;36.38;18.42;;;4.20;70.80;;;;;;5000981;28;20440;-74
2022/03/07 00:33:50;;;;;;;36.47;18.33;;;4.00;71.10;;;;;;5014889;28;20080;-74
2022/03/07 00:36:18;;;;;;;35.58;18.15;;;4.00;71.30;;;;;;4995391;28;20030;-74
2022/03/07 00:38:44;;;;;;;36.25;18.83;;;3.90;71.50;;;;;;4998841;28;20435;-74
2022/03/07 00:41:09;;;;;;;34.97;18.00;;;3.90;71.50;;;;;;4999008;28;20027;-74
2022/03/07 00:43:36;;;;;;;38.45;19.70;;;4.00;71.70;;;;;;4999057;28;20795;-74
2022/03/07 00:46:02;;;;;;;38.03;18.92;;;3.90;71.50;;;;;;4997962;28;20034;-75
2022/03/07 00:48:28;;;;;;;35.92;18.90;;;3.90;71.60;;;;;;5030351;28;20440;-74
2022/03/07 00:50:54;;;;;;;37.15;18.35;;;3.90;71.60;;;;;;4997519;28;20034;-74
2022/03/07 00:53:23;;;;;;;37.58;17.77;;;3.90;71.40;;;;;;4998530;28;20026;-74
2022/03/07 00:55:53;;;;;;;41.33;19.80;;;3.80;71.70;;;;;;4998328;28;20102;-74
2022/03/07 00:58:19;;;;;;;38.17;20.33;;;3.90;71.80;;;;;;4998340;28;20396;-74
2022/03/07 01:00:45;;;;;;;34.13;18.55;;;4.00;71.40;;;;;;5005022;28;20048;-74
2022/03/07 01:03:13;;;;;;;40.40;21.13;;;4.00;71.30;;;;;;5036584;28;20391;-74
2022/03/07 01:05:39;;;;;;;40.30;19.85;;;3.90;71.70;;;;;;5038244;28;20029;-74
2022/03/07 01:08:06;;;;;;;37.50;19.90;;;3.90;71.40;;;;;;4998181;28;20044;-74
2022/03/07 01:10:32;;;;;;;36.58;18.90;;;3.80;72.10;;;;;;4998291;28;20030;-74
2022/03/07 01:12:57;;;;;;;40.08;20.70;;;3.80;71.90;;;;;;4997067;28;20034;-74
2022/03/07 01:15:23;;;;;;;36.28;18.48;;;3.80;71.80;;;;;;5013035;28;20037;-74
2022/03/07 01:17:49;;;;;;;35.10;18.70;;;3.80;72.00;;;;;;5030043;28;20027;-74
2022/03/07 01:20:15;;;;;;;37.05;19.73;;;3.80;72.30;;;;;;5013337;28;20034;-74
2022/03/07 01:22:44;;;;;;;41.17;18.52;;;3.80;71.90;;;;;;5029569;28;20109;-74
2022/03/07 01:25:10;;;;;;;36.83;20.17;;;3.90;71.70;;;;;;5016307;28;20037;-74
2022/03/07 01:27:36;;;;;;;37.88;20.70;;;3.80;71.60;;;;;;5017788;28;20091;-74
2022/03/07 01:30:03;;;;;;;35.30;17.35;;;3.80;71.80;;;;;;5035877;28;20030;-74
2022/03/07 01:32:29;;;;;;;32.90;18.45;;;3.70;71.90;;;;;;4998222;28;20019;-74
2022/03/07 01:34:55;;;;;;;40.25;19.80;;;3.70;72.20;;;;;;4997550;28;20061;-74
2022/03/07 01:37:20;;;;;;;35.58;18.20;;;3.70;72.10;;;;;;5029479;28;20580;-74
2022/03/07 01:39:47;;;;;;;36.20;19.25;;;3.70;72.30;;;;;;4997873;28;20407;-74
2022/03/07 01:42:12;;;;;;;36.95;19.92;;;3.70;72.30;;;;;;4997848;28;20023;-74
2022/03/07 01:44:38;;;;;;;34.67;18.95;;;3.80;72.00;;;;;;5011854;28;20746;-75
2022/03/07 01:47:05;;;;;;;39.13;17.88;;;3.70;71.90;;;;;;5012760;28;20026;-74
2022/03/07 01:49:32;;;;;;;31.90;19.08;;;3.60;72.00;;;;;;4997666;28;20052;-74
2022/03/07 01:51:58;;;;;;;39.80;19.48;;;3.60;72.40;;;;;;4997797;28;20038;-74
2022/03/07 01:54:24;;;;;;;46.30;18.20;;;3.70;72.40;;;;;;4997296;28;20791;-75
2022/03/07 01:56:52;;;;;;;33.50;19.00;;;3.60;71.80;;;;;;4997573;28;20010;-74
2022/03/07 01:59:27;;;;;;;36.60;18.85;;;3.60;72.30;;;;;;4997723;28;20026;-74
2022/03/07 02:01:54;;;;;;;39.35;18.88;;;3.50;72.70;;;;;;4997583;28;20024;-74
2022/03/07 02:04:20;;;;;;;34.40;18.40;;;3.60;72.30;;;;;;4997647;28;20035;-74
2022/03/07 02:06:47;;;;;;;37.38;20.30;;;3.50;72.50;;;;;;4997595;28;20399;-74
2022/03/07 02:09:13;;;;;;;37.00;20.27;;;3.50;72.40;;;;;;5029423;28;20058;-74
2022/03/07 02:11:39;;;;;;;33.50;19.73;;;3.50;72.50;;;;;;4996861;28;20034;-74
2022/03/07 02:14:12;;;;;;;35.15;17.70;;;3.40;72.70;;;;;;5028932;28;20133;-74
2022/03/07 02:16:38;;;;;;;37.08;18.55;;;3.40;72.50;;;;;;5028637;28;20026;-74
2022/03/07 02:19:04;;;;;;;41.05;20.13;;;3.40;72.90;;;;;;4997250;28;20022;-74
2022/03/07 02:21:33;;;;;;;35.10;18.25;;;3.40;72.40;;;;;;4997085;28;20045;-74
2022/03/07 02:23:59;;;;;;;37.38;19.63;;;3.50;72.60;;;;;;5008936;28;20396;-74
2022/03/07 02:26:24;;;;;;;33.33;19.52;;;3.40;72.30;;;;;;5036121;28;20091;-74
2022/03/07 02:28:50;;;;;;;40.40;20.67;;;3.40;72.70;;;;;;5036382;28;20124;-74
2022/03/07 02:31:18;;;;;;;42.92;20.27;;;3.30;72.70;;;;;;5014233;28;20026;-74
2022/03/07 02:33:44;;;;;;;41.45;20.77;;;3.40;72.30;;;;;;5012001;28;20440;-74
2022/03/07 02:36:10;;;;;;;34.13;18.02;;;3.40;72.10;;;;;;4996917;28;20026;-74
2022/03/07 02:38:36;;;;;;;38.92;21.60;;;3.30;72.30;;;;;;4996576;28;20140;-74
2022/03/07 02:41:01;;;;;;;35.95;19.40;;;3.20;72.80;;;;;;4996770;28;20058;-74
2022/03/07 02:43:27;;;;;;;42.03;20.75;;;3.20;72.90;;;;;;4996819;28;20034;-74
2022/03/07 02:45:55;;;;;;;39.15;20.17;;;3.20;72.80;;;;;;4996367;28;20035;-74
2022/03/07 02:48:21;;;;;;;39.03;18.50;;;3.20;72.50;;;;;;5011687;28;20034;-74
2022/03/07 02:50:47;;;;;;;39.60;19.02;;;3.20;72.70;;;;;;5011489;28;20022;-74
2022/03/07 02:53:13;;;;;;;32.58;19.45;;;3.10;72.60;;;;;;5028233;28;20030;-74
2022/03/07 02:55:38;;;;;;;36.72;19.65;;;3.20;72.60;;;;;;4996127;28;20054;-75
2022/03/07 02:58:04;;;;;;;42.35;20.40;;;3.20;72.60;;;;;;4996589;28;20481;-74
2022/03/07 03:00:30;;;;;;;41.15;20.20;;;3.20;72.10;;;;;;4995664;28;20058;-74
2022/03/07 03:02:56;;;;;;;38.05;20.00;;;3.30;71.80;;;;;;4996310;28;20027;-75
2022/03/07 03:05:22;;;;;;;38.53;19.63;;;3.20;72.20;;;;;;4996343;28;20073;-74
2022/03/07 03:07:48;;;;;;;34.42;18.55;;;3.20;72.30;;;;;;4996203;28;20037;-75
2022/03/07 03:10:14;;;;;;;37.35;19.48;;;3.10;72.20;;;;;;4996128;28;20026;-74
2022/03/07 03:12:40;;;;;;;41.15;20.23;;;3.20;72.20;;;;;;4996298;28;20405;-74
2022/03/07 03:15:06;;;;;;;41.45;19.52;;;3.20;72.00;;;;;;4996063;28;20034;-74
2022/03/07 03:17:32;;;;;;;36.40;19.85;;;3.20;72.10;;;;;;4996182;28;20093;-74
2022/03/07 03:19:58;;;;;;;34.92;19.60;;;3.10;72.20;;;;;;4996240;28;20464;-74
2022/03/07 03:22:23;;;;;;;41.83;21.17;;;3.10;72.40;;;;;;4995561;28;20037;-74
2022/03/07 03:24:49;;;;;;;38.78;20.52;;;3.00;72.40;;;;;;5013693;28;20057;-74
2022/03/07 03:27:15;;;;;;;39.13;20.17;;;3.00;72.80;;;;;;4996043;28;20042;-74
2022/03/07 03:29:41;;;;;;;35.38;18.27;;;3.00;72.50;;;;;;5027514;28;20539;-74
2022/03/07 03:32:07;;;;;;;38.30;20.23;;;3.10;72.00;;;;;;4995984;28;20030;-74
2022/03/07 03:34:33;;;;;;;38.40;18.77;;;2.90;72.30;;;;;;4996037;28;20030;-73
2022/03/07 03:36:59;;;;;;;41.80;20.80;;;2.90;72.70;;;;;;5010961;28;20041;-74
2022/03/07 03:39:24;;;;;;;34.28;19.10;;;2.80;72.70;;;;;;5027071;28;20026;-74
2022/03/07 03:41:50;;;;;;;33.42;19.17;;;2.70;73.00;;;;;;4995322;28;20108;-74
2022/03/07 03:44:16;;;;;;;35.05;18.35;;;2.80;72.80;;;;;;5011018;28;20081;-75
2022/03/07 03:46:42;;;;;;;40.30;21.70;;;2.70;73.60;;;;;;4995931;28;20097;-74
2022/03/07 03:49:08;;;;;;;35.90;19.70;;;2.70;73.20;;;;;;4995509;28;20027;-74
2022/03/07 03:51:36;;;;;;;37.60;18.98;;;2.80;72.70;;;;;;4995713;28;20026;-74
2022/03/07 03:54:02;;;;;;;40.08;20.40;;;2.80;72.20;;;;;;4995690;28;20038;-74
2022/03/07 03:56:28;;;;;;;41.10;20.85;;;2.70;73.00;;;;;;4994380;28;20134;-75
2022/03/07 03:58:54;;;;;;;37.95;18.35;;;2.80;72.60;;;;;;4994001;28;20068;-74
2022/03/07 04:01:19;;;;;;;38.45;19.27;;;2.70;72.20;;;;;;4995538;28;20030;-74
2022/03/07 04:03:45;;;;;;;36.15;20.23;;;2.80;72.40;;;;;;4995650;28;20031;-74
2022/03/07 04:06:11;;;;;;;40.90;19.92;;;2.70;72.70;;;;;;5010679;28;20034;-74
2022/03/07 04:08:43;;;;;;;38.50;19.58;;;2.70;72.80;;;;;;4995401;28;20102;-74
2022/03/07 04:11:09;;;;;;;35.20;18.58;;;2.70;73.00;;;;;;4997031;28;20125;-74
2022/03/07 04:13:35;;;;;;;36.97;20.02;;;2.70;72.30;;;;;;4999647;28;20023;-74
2022/03/07 04:16:00;;;;;;;42.30;20.85;;;2.70;72.00;;;;;;5011683;28;20065;-74
2022/03/07 04:18:26;;;;;;;37.50;19.70;;;2.70;72.70;;;;;;5018997;28;20018;-74
2022/03/07 04:20:51;;;;;;;36.63;20.13;;;2.60;72.60;;;;;;5018874;28;20026;-74
2022/03/07 04:23:20;;;;;;;40.20;20.42;;;2.70;72.10;;;;;;5017513;28;20456;-74
2022/03/07 04:25:48;;;;;;;36.35;20.08;;;2.50;72.50;;;;;;5012530;28;20030;-74
2022/03/07 04:28:13;;;;;;;34.53;18.60;;;2.40;73.00;;;;;;4999355;28;20022;-74
2022/03/07 04:30:40;;;;;;;33.72;19.48;;;2.50;72.90;;;;;;4998958;28;20046;-74
2022/03/07 04:33:05;;;;;;;37.90;21.80;;;2.60;72.50;;;;;;5007947;28;20116;-74
2022/03/07 04:35:31;;;;;;;38.28;19.45;;;2.50;72.60;;;;;;5002149;28;20123;-74
2022/03/07 04:37:57;;;;;;;36.10;19.08;;;2.50;72.70;;;;;;4999137;28;20060;-74
2022/03/07 04:40:23;;;;;;;34.97;19.00;;;2.50;72.40;;;;;;4997642;28;20030;-74
2022/03/07 04:42:48;;;;;;;38.53;20.25;;;2.30;73.00;;;;;;4999001;28;20030;-74
2022/03/07 04:45:14;;;;;;;44.85;21.80;;;2.30;73.50;;;;;;4999055;28;20034;-74
2022/03/07 04:47:41;;;;;;;37.33;19.67;;;2.40;72.80;;;;;;4998882;28;20022;-74
2022/03/07 04:50:07;;;;;;;31.75;18.45;;;2.40;72.60;;;;;;5013949;28;20436;-74
2022/03/07 04:52:34;;;;;;;34.80;18.42;;;2.40;72.30;;;;;;5013563;28;20027;-74
2022/03/07 04:54:59;;;;;;;37.60;20.25;;;2.40;72.50;;;;;;4998555;28;20516;-74
2022/03/07 04:57:25;;;;;;;40.42;20.52;;;2.30;72.60;;;;;;4998704;28;20374;-74
2022/03/07 04:59:51;;;;;;;39.67;21.20;;;2.50;72.50;;;;;;4998873;28;20157;-74
2022/03/07 05:02:17;;;;;;;43.30;19.50;;;2.40;72.60;;;;;;5012819;28;20081;-74
2022/03/07 05:04:42;;;;;;;39.45;19.70;;;2.30;72.40;;;;;;4998740;28;20053;-74
2022/03/07 05:07:08;;;;;;;36.03;19.30;;;2.20;72.90;;;;;;5030080;28;20038;-74
2022/03/07 05:09:34;;;;;;;36.47;19.00;;;2.20;72.70;;;;;;5038565;28;20030;-73
2022/03/07 05:12:00;;;;;;;44.70;21.75;;;2.20;72.90;;;;;;5017762;28;20025;-74
2022/03/07 05:14:26;;;;;;;35.33;19.05;;;2.20;73.00;;;;;;5001193;28;20396;-74
2022/03/07 05:16:52;;;;;;;34.75;18.73;;;2.20;73.10;;;;;;5030055;28;20022;-74
2022/03/07 05:19:18;;;;;;;34.97;18.88;;;2.10;73.10;;;;;;5029950;28;20035;-74
2022/03/07 05:21:44;;;;;;;34.10;18.15;;;2.10;73.50;;;;;;4998180;28;20029;-74
2022/03/07 05:24:09;;;;;;;33.92;18.17;;;2.10;73.20;;;;;;5021339;28;20029;-74
2022/03/07 05:26:36;;;;;;;35.78;19.42;;;2.10;73.30;;;;;;5037477;28;20041;-74
2022/03/07 05:29:03;;;;;;;36.38;19.88;;;1.90;73.40;;;;;;5037510;28;20018;-74
2022/03/07 05:31:29;;;;;;;38.95;20.40;;;1.90;73.40;;;;;;5003144;28;20038;-74
2022/03/07 05:33:55;;;;;;;36.35;19.58;;;1.90;73.40;;;;;;4998312;28;20047;-74
2022/03/07 05:36:21;;;;;;;36.97;20.60;;;1.90;73.60;;;;;;4998376;28;20113;-74
2022/03/07 05:38:47;;;;;;;43.95;20.17;;;1.80;73.80;;;;;;4998142;28;20061;-74
2022/03/07 05:41:13;;;;;;;34.22;19.45;;;1.90;73.40;;;;;;4997917;28;20084;-74
2022/03/07 05:43:38;;;;;;;39.20;20.83;;;2.00;73.40;;;;;;5014274;28;20113;-74
2022/03/07 05:46:06;;;;;;;39.38;20.00;;;2.00;73.00;;;;;;5003478;28;20030;-74
2022/03/07 05:48:31;;;;;;;40.10;20.20;;;1.90;73.20;;;;;;5015865;28;20511;-77
2022/03/07 05:50:57;;;;;;;33.25;19.13;;;1.90;73.40;;;;;;5015821;28;20033;-77
2022/03/07 05:53:23;;;;;;;39.47;20.40;;;1.90;73.40;;;;;;5012357;28;20026;-75
2022/03/07 06:13:41;;;;;;;31.55;16.33;;;0.60;77.80;;;;;;5168905;27;20847;-74
2022/03/07 06:16:07;;;;;;;35.45;18.55;;;0.60;78.20;;;;;;5172342;27;20138;-75
2022/03/07 06:18:33;;;;;;;41.30;20.13;;;0.80;77.60;;;;;;5174728;27;20053;-75
2022/03/07 06:20:59;;;;;;;41.50;19.02;;;1.10;77.00;;;;;;5174086;27;20032;-74
2022/03/07 06:23:25;;;;;;;38.90;19.50;;;1.30;75.60;;;;;;5145039;27;20547;-75
2022/03/07 06:25:50;;;;;;;133.90;60.85;;;1.40;75.10;;;;;;5166277;27;20049;-75
2022/03/07 06:28:16;;;;;;;69.60;39.95;;;1.50;74.60;;;;;;5171855;27;20034;-74
2022/03/07 06:30:46;;;;;;;46.53;27.58;;;1.70;74.00;;;;;;5171188;27;20034;-75
2022/03/07 06:33:13;;;;;;;34.17;18.52;;;1.60;74.40;;;;;;5174626;27;20024;-76
2022/03/07 06:35:39;;;;;;;34.92;18.60;;;1.60;74.30;;;;;;5172633;27;20045;-76
2022/03/07 06:38:04;;;;;;;34.80;18.27;;;1.70;73.90;;;;;;5171591;27;20035;-76
2022/03/07 06:40:31;;;;;;;30.95;18.88;;;1.80;73.30;;;;;;5173317;27;20025;-76
2022/03/07 06:42:57;;;;;;;35.13;19.85;;;1.90;73.20;;;;;;5172368;27;20121;-77
2022/03/07 06:45:23;;;;;;;35.35;18.73;;;1.70;73.00;;;;;;5164943;27;20026;-78
2022/03/07 06:47:49;;;;;;;36.67;20.30;;;1.70;73.40;;;;;;5167469;27;20569;-76
2022/03/07 06:50:16;;;;;;;36.58;18.17;;;1.70;73.60;;;;;;5172404;27;20069;-76
2022/03/07 06:52:42;;;;;;;38.42;19.73;;;1.70;73.20;;;;;;5153224;27;20037;-77
2022/03/07 06:55:08;;;;;;;40.28;19.65;;;1.70;73.40;;;;;;5151525;27;20023;-76
2022/03/07 06:57:34;;;;;;;32.45;19.38;;;1.70;73.30;;;;;;5152280;27;20035;-76
2022/03/07 07:00:00;;;;;;;38.30;20.92;;;1.70;73.10;;;;;;5152818;27;20026;-76
2022/03/07 07:02:25;;;;;;;37.75;20.70;;;1.70;73.70;;;;;;5134813;27;20042;-76
2022/03/07 07:04:51;;;;;;;36.60;19.42;;;1.60;73.70;;;;;;5153328;27;20027;-73
2022/03/07 07:07:16;;;;;;;36.97;19.75;;;1.60;74.00;;;;;;5167143;27;20050;-74
2022/03/07 07:09:42;;;;;;;42.63;22.52;;;1.70;74.10;;;;;;5173108;27;20027;-73
2022/03/07 07:12:09;;;;;;;38.78;21.70;;;1.80;72.40;;;;;;5150782;27;20039;-76
2022/03/07 07:14:36;;;;;;;32.58;18.70;;;1.80;73.20;;;;;;5152030;27;20102;-76
2022/03/07 07:17:02;;;;;;;41.15;22.27;;;1.80;72.70;;;;;;5148807;27;20030;-76
2022/03/07 07:19:28;;;;;;;39.45;19.58;;;2.00;73.00;;;;;;5147346;27;20094;-76
2022/03/07 07:21:54;;;;;;;36.88;18.35;;;2.00;72.60;;;;;;5147024;27;20044;-76
2022/03/07 07:24:20;;;;;;;35.80;19.42;;;2.20;72.40;;;;;;5136598;27;20393;-76
2022/03/07 07:26:46;;;;;;;37.20;19.67;;;2.30;71.90;;;;;;5138783;27;20095;-73
2022/03/07 07:29:11;;;;;;;33.70;19.02;;;2.30;71.60;;;;;;5138753;27;20027;-73
2022/03/07 07:31:37;;;;;;;43.85;21.02;;;2.70;70.70;;;;;;5122922;27;20032;-73
2022/03/07 07:34:03;;;;;;;33.65;19.08;;;3.30;67.60;;;;;;5118173;27;20020;-73
2022/03/07 07:36:28;;;;;;;33.88;20.83;;;4.00;65.60;;;;;;5118162;27;20484;-74
2022/03/07 07:38:54;;;;;;;30.35;18.60;;;4.50;63.70;;;;;;5116460;28;20022;-74
2022/03/07 07:41:20;;;;;;;32.50;18.85;;;6.00;62.10;;;;;;5133671;27;20066;-73
2022/03/07 07:43:49;;;;;;;32.40;19.20;;;6.80;57.80;;;;;;5117853;27;20035;-74
2022/03/07 07:46:15;;;;;;;27.38;19.13;;;7.50;54.20;;;;;;5118189;28;20815;-74
2022/03/07 07:48:40;;;;;;;29.58;18.20;;;7.50;53.40;;;;;;5116591;28;20028;-74
2022/03/07 07:51:06;;;;;;;29.00;18.98;;;8.00;52.70;;;;;;5136478;27;20424;-74
2022/03/07 07:53:32;;;;;;;31.02;19.67;;;8.40;49.60;;;;;;5133919;27;20038;-76
2022/03/07 07:55:57;;;;;;;28.17;19.58;;;9.20;50.10;;;;;;5138417;27;20023;-74
2022/03/07 07:58:23;;;;;;;26.65;18.85;;;9.20;48.40;;;;;;5137758;27;20548;-74
2022/03/07 08:00:49;;;;;;;28.98;17.77;;;9.20;48.20;;;;;;5137709;27;20015;-74
2022/03/07 08:03:14;;;;;;;29.13;19.48;;;9.90;47.80;;;;;;5135048;27;20031;-74
2022/03/07 08:05:40;;;;;;;28.73;19.05;;;9.70;46.60;;;;;;5136225;27;20115;-74
2022/03/07 08:08:06;;;;;;;29.45;19.38;;;9.40;46.70;;;;;;5137628;27;20106;-74
2022/03/07 08:10:31;;;;;;;31.83;21.10;;;9.60;45.70;;;;;;5123909;27;20056;-74
2022/03/07 08:12:58;;;;;;;30.63;21.15;;;9.60;46.30;;;;;;5152837;27;20436;-74
2022/03/07 08:15:24;;;;;;;28.75;19.23;;;9.60;46.90;;;;;;5139764;27;20071;-76
2022/03/07 08:17:50;;;;;;;31.20;20.00;;;9.50;46.90;;;;;;5146376;27;20050;-74
2022/03/07 08:20:23;;;;;;;26.02;17.95;;;9.80;45.90;;;;;;5137805;27;20015;-74
2022/03/07 08:22:49;;;;;;;27.58;19.17;;;9.50;45.50;;;;;;5123604;27;20524;-74
2022/03/07 08:25:14;;;;;;;26.98;18.00;;;9.30;45.40;;;;;;5158557;27;20592;-74
2022/03/07 08:27:41;;;;;;;29.13;20.10;;;9.90;45.40;;;;;;5145557;27;20033;-74
2022/03/07 08:30:09;;;;;;;29.40;19.67;;;9.90;43.90;;;;;;5118900;27;20488;-74
2022/03/07 08:32:36;;;;;;;32.03;20.80;;;10.30;44.90;;;;;;5137482;27;20035;-74
2022/03/07 08:35:04;;;;;;;31.50;20.80;;;10.30;45.20;;;;;;5135809;27;20503;-74
2022/03/07 08:37:30;;;;;;;27.13;18.75;;;10.70;43.80;;;;;;5137324;27;20528;-74
2022/03/07 08:39:55;;;;;;;29.05;19.70;;;10.80;43.70;;;;;;5137212;27;20076;-74
2022/03/07 08:42:21;;;;;;;27.48;20.23;;;10.40;43.50;;;;;;5137458;27;20439;-74
2022/03/07 08:44:46;;;;;;;28.38;19.77;;;10.40;43.90;;;;;;5137420;27;20019;-74
2022/03/07 08:47:13;;;;;;;27.38;20.23;;;11.20;43.10;;;;;;5137391;27;20027;-74
2022/03/07 08:49:39;;;;;;;29.00;20.33;;;12.20;40.80;;;;;;5135812;27;20019;-74
2022/03/07 08:52:05;;;;;;;27.90;19.42;;;12.30;39.60;;;;;;5128444;27;20080;-74
2022/03/07 08:54:31;;;;;;;28.08;20.67;;;12.00;39.10;;;;;;5137281;27;20462;-74
2022/03/07 08:56:56;;;;;;;24.73;19.73;;;11.80;40.10;;;;;;5142321;27;20033;-74
2022/03/07 08:59:24;;;;;;;25.05;19.67;;;12.30;39.20;;;;;;5143421;27;20520;-75
2022/03/07 09:01:50;;;;;;;23.98;18.95;;;12.90;37.80;;;;;;5136834;27;20092;-74
2022/03/07 09:04:16;;;;;;;28.85;21.23;;;12.80;38.80;;;;;;5136937;27;20027;-74
2022/03/07 09:06:43;;;;;;;26.95;20.42;;;12.80;38.40;;;;;;5118213;27;20035;-74
2022/03/07 09:09:09;;;;;;;27.05;20.35;;;13.30;37.90;;;;;;5142005;27;20015;-74
2022/03/07 09:11:34;;;;;;;26.75;20.17;;;13.90;37.40;;;;;;5154486;27;20507;-74
2022/03/07 09:14:00;;;;;;;27.17;22.88;;;13.90;36.90;;;;;;5138019;27;20015;-75
2022/03/07 09:16:26;;;;;;;24.73;18.88;;;14.20;35.60;;;;;;5157224;27;20014;-75
2022/03/07 09:18:51;;;;;;;24.58;19.75;;;13.90;34.60;;;;;;5138096;27;20023;-74
2022/03/07 09:21:17;;;;;;;24.83;20.35;;;13.90;34.60;;;;;;5137746;27;20080;-75
2022/03/07 09:23:43;;;;;;;38.65;29.63;;;13.70;35.30;;;;;;5145118;27;20035;-75
2022/03/07 09:26:12;;;;;;;25.55;22.52;;;14.00;35.70;;;;;;5153059;27;20026;-74
2022/03/07 09:28:37;;;;;;;26.88;21.88;;;14.50;35.40;;;;;;5153959;27;20102;-75
2022/03/07 09:31:03;;;;;;;26.40;21.25;;;14.80;34.40;;;;;;5138221;27;20042;-75
2022/03/07 09:33:29;;;;;;;23.42;19.35;;;14.80;33.70;;;;;;5138334;27;20102;-74
2022/03/07 09:35:55;;;;;;;25.15;20.20;;;14.00;33.20;;;;;;5153012;27;20538;-75
2022/03/07 09:38:21;;;;;;;23.65;20.08;;;14.50;34.80;;;;;;5156959;27;20027;-75
2022/03/07 09:40:47;;;;;;;23.15;19.67;;;14.90;32.60;;;;;;5136009;27;20056;-75
2022/03/07 09:43:14;;;;;;;21.80;19.52;;;15.00;33.90;;;;;;5136686;27;20031;-75
2022/03/07 09:45:40;;;;;;;21.80;19.15;;;15.20;32.90;;;;;;5157078;27;20023;-74
2022/03/07 09:48:06;;;;;;;25.90;20.30;;;14.80;32.60;;;;;;5141360;27;20031;-75
2022/03/07 09:50:32;;;;;;;24.35;20.00;;;15.20;33.10;;;;;;5118524;27;20090;-74
2022/03/07 09:52:58;;;;;;;22.95;20.40;;;14.70;32.60;;;;;;5156745;27;20496;-75
2022/03/07 09:55:24;;;;;;;21.98;19.67;;;13.70;33.80;;;;;;5143553;27;20038;-75
2022/03/07 09:57:51;;;;;;;25.48;20.33;;;14.40;34.70;;;;;;5136237;27;20026;-74
2022/03/07 10:00:18;;;;;;;21.88;19.50;;;14.40;33.90;;;;;;5140694;27;20110;-74
2022/03/07 10:03:00;;;;;;;24.10;20.13;;;14.70;33.50;;;;;;5156478;27;20019;-74
2022/03/07 10:05:32;;;;;;;22.38;19.95;;;14.60;33.10;;;;;;5157095;27;20015;-75
2022/03/07 10:07:58;;;;;;;21.33;19.02;;;15.00;33.90;;;;;;5135906;27;20019;-75
2022/03/07 10:10:29;;;;;;;23.92;20.77;;;14.00;32.90;;;;;;5117486;28;20031;-75
2022/03/07 10:12:54;;;;;;;22.98;19.77;;;13.80;34.90;;;;;;5135608;28;20047;-74
2022/03/07 10:15:22;;;;;;;24.15;20.13;;;13.90;34.70;;;;;;5136147;28;20087;-74
2022/03/07 10:17:53;;;;;;;22.65;19.83;;;13.20;35.40;;;;;;5133995;27;20035;-74
2022/03/07 10:20:24;;;;;;;22.20;18.98;;;13.30;35.70;;;;;;5133559;28;20048;-74
2022/03/07 10:22:53;;;;;;;22.30;19.52;;;12.80;37.50;;;;;;5137043;27;20023;-74
2022/03/07 10:25:30;;;;;;;25.25;19.20;;;11.70;37.00;;;;;;5156507;27;20027;-74
2022/03/07 10:27:59;;;;;;;23.65;17.45;;;11.20;40.50;;;;;;5156575;27;20018;-74
2022/03/07 10:30:27;;;;;;;23.25;16.95;;;11.60;39.00;;;;;;5146326;27;20102;-74
2022/03/07 10:32:55;;;;;;;26.10;18.75;;;11.60;39.70;;;;;;5117265;28;20118;-74
2022/03/07 10:35:32;;;;;;;27.40;18.63;;;11.30;40.30;;;;;;5117389;28;20038;-74
2022/03/07 10:38:07;;;;;;;25.63;17.77;;;10.70;41.70;;;;;;5135306;27;20019;-74
2022/03/07 10:40:35;;;;;;;26.55;18.73;;;10.20;41.40;;;;;;5117037;28;20050;-75
2022/03/07 10:43:01;;;;;;;24.55;17.35;;;10.10;43.60;;;;;;5116997;28;20023;-74
2022/03/07 10:45:29;;;;;;;25.95;16.58;;;9.70;43.30;;;;;;5135892;28;20100;-74
2022/03/07 10:47:57;;;;;;;29.20;17.65;;;9.70;42.50;;;;;;5135402;27;20035;-75
2022/03/07 10:50:26;;;;;;;26.33;17.35;;;9.40;43.70;;;;;;5135730;28;20019;-75
2022/03/07 10:53:04;;;;;;;27.42;17.83;;;9.70;43.70;;;;;;5135558;28;20019;-75
2022/03/07 10:55:31;;;;;;;25.50;16.33;;;9.60;43.50;;;;;;5147039;27;20446;-75
2022/03/07 10:58:15;;;;;;;22.38;13.48;;;9.60;44.40;;;;;;5132968;27;20497;-75
2022/03/07 11:00:51;;;;;;;24.70;15.80;;;9.30;43.60;;;;;;5139383;27;20061;-76
2022/03/07 11:03:19;;;;;;;24.80;14.85;;;9.50;45.50;;;;;;5142168;27;20022;-74
2022/03/07 11:05:46;;;;;;;26.27;17.02;;;9.50;43.90;;;;;;5141327;27;20027;-79
2022/03/07 11:08:15;;;;;;;25.40;16.67;;;9.70;44.30;;;;;;5140468;27;20018;-79
2022/03/07 11:10:46;;;;;;;26.23;16.13;;;9.90;42.90;;;;;;5159210;27;20038;-79
2022/03/07 11:13:16;;;;;;;26.58;15.57;;;9.80;43.90;;;;;;5158952;27;20070;-78
2022/03/07 11:15:43;;;;;;;;;;;9.50;43.10;;;;;;5160468;27;20022;-75
2022/03/07 11:18:15;;;;;;;27.40;15.43;;;9.40;43.50;;;;;;5156038;27;19911;-78
2022/03/07 11:20:43;;;;;;;24.75;13.20;;;9.40;44.40;;;;;;5159402;27;20018;-80
2022/03/07 11:23:11;;;;;;;27.55;15.98;;;9.20;44.10;;;;;;5139198;27;20448;-77
2022/03/07 11:25:38;;;;;;;22.27;13.23;;;9.60;45.70;;;;;;5142159;27;20575;-78
2022/03/07 11:28:05;;;;;;;26.48;14.57;;;9.30;42.50;;;;;;5137336;27;20015;-77
2022/03/07 11:30:37;;;;;;;24.27;14.77;;;9.30;42.90;;;;;;5136767;27;20051;-78
2022/03/07 11:33:11;;;;;;;23.08;15.27;;;9.20;43.80;;;;;;5124698;27;20038;-77
2022/03/07 11:35:48;;;;;;;23.10;13.27;;;9.20;44.30;;;;;;5137581;27;20035;-77
2022/03/07 11:38:17;;;;;;;27.23;15.45;;;9.50;41.90;;;;;;5138448;27;20404;-77
2022/03/07 11:41:03;;;;;;;21.77;12.15;;;10.10;42.60;;;;;;5120315;27;20031;-78
2022/03/07 11:43:35;;;;;;;25.13;15.82;;;9.80;42.20;;;;;;5137747;27;20030;-77
2022/03/07 11:46:03;;;;;;;23.85;15.02;;;10.20;41.20;;;;;;5138809;27;20015;-77
2022/03/07 11:48:45;;;;;;;21.30;13.77;;;9.80;40.50;;;;;;5138312;27;20545;-77
2022/03/07 11:51:26;;;;;;;20.30;13.10;;;9.80;39.40;;;;;;5138004;27;20023;-78
2022/03/07 11:53:53;;;;;;;20.25;13.38;;;9.60;39.00;;;;;;5137166;27;20173;-78
2022/03/07 11:56:24;;;;;;;19.63;12.98;;;9.70;39.60;;;;;;5156852;27;20420;-79
2022/03/07 11:58:53;;;;;;;22.05;12.85;;;9.80;39.40;;;;;;5140535;27;20118;-82
2022/03/07 12:01:21;;;;;;;20.70;13.05;;;9.60;37.60;;;;;;5173160;27;20011;-79
2022/03/07 12:03:49;;;;;;;18.52;12.38;;;9.80;37.10;;;;;;5158988;27;20022;-76
2022/03/07 12:06:18;;;;;;;22.40;13.10;;;9.30;37.70;;;;;;5158796;27;20022;-77
2022/03/07 12:08:49;;;;;;;20.98;13.55;;;9.50;39.70;;;;;;5141687;27;20022;-79
2022/03/07 12:11:33;;;;;;;20.92;13.15;;;9.50;38.70;;;;;;5132268;27;20038;-81
2022/03/07 12:14:04;;;;;;;18.52;10.45;;;9.20;38.40;;;;;;5119711;27;20130;-83
2022/03/07 12:16:34;;;;;;;18.10;11.90;;;8.80;38.10;;;;;;5131863;27;20071;-81
2022/03/07 12:19:09;;;;;;;19.75;12.23;;;8.90;38.70;;;;;;5157594;27;20018;-78
2022/03/07 12:21:36;;;;;;;20.35;12.55;;;8.90;38.20;;;;;;5156240;27;20011;-80
2022/03/07 12:24:05;;;;;;;16.90;10.82;;;8.90;38.60;;;;;;5158763;27;20022;-85
2022/03/07 12:26:31;;;;;;;18.75;12.82;;;9.10;38.70;;;;;;5157226;27;20094;-84
2022/03/07 12:28:56;;;;;;;14.50;9.85;;;9.20;37.20;;;;;;5158095;27;20019;-85
2022/03/07 12:31:22;;;;;;;16.00;10.90;;;9.60;37.50;;;;;;5157245;27;20030;-83
2022/03/07 12:33:48;;;;;;;16.25;11.20;;;9.50;37.10;;;;;;5137773;27;20159;-84
2022/03/07 12:36:15;;;;;;;16.27;10.20;;;9.50;37.30;;;;;;5158049;27;20446;-85
2022/03/07 12:38:48;;;;;;;21.13;10.40;;;9.60;37.60;;;;;;5158051;27;20334;-85
2022/03/07 12:41:14;;;;;;;21.52;14.07;;;9.60;36.30;;;;;;5139149;27;20067;-81
2022/03/07 12:43:43;;;;;;;17.35;10.63;;;9.90;37.40;;;;;;5139783;27;20034;-81
2022/03/07 12:46:11;;;;;;;17.90;10.88;;;9.30;37.40;;;;;;5158073;27;20023;-81
2022/03/07 12:48:45;;;;;;;24.10;14.80;;;9.70;37.80;;;;;;5149150;27;20110;-81
2022/03/07 12:51:17;;;;;;;20.13;13.43;;;10.00;38.90;;;;;;5137587;27;20054;-81
2022/03/07 12:54:01;;;;;;;17.85;12.55;;;9.80;36.80;;;;;;5125337;27;20030;-82